North Hanover, New Jersey
Current Conditions -  °F | °C
As of 1:58 PM on Friday 24 Oct 2014 (Local Time) from KWRI Reporting Station
Scattered Clouds Scattered Clouds  
Wind Chill: 64°   Ceiling: Unl
Heat Index: 64°   Visibility: 10mi
Dew Point: 45°   Wind: 15mph
Humidity: 50%   Direction: 310°NW
Pressure: 29.78"   Gusts: 24mph
Location:  40.0733°N, 74.5866°W
Report Text: KWRI 241758Z AUTO 31013G21KT 10SM SCT049 18/07 A2978 RMK AO2 SLP088 T01780072 10181 20118 57020
Loading
Personal Weather Stations






























Interactive Weather Map
Tropical Storm Tracking
New forecast layout! Learn more

10-Day Weather Forecast

Advertisements
Track Severe Weather on mobile